createdAt,value
2018-08-23T00:01:10.319Z,29.82
2018-08-23T00:03:38.482Z,29.85
2018-08-23T00:06:06.630Z,28.17
2018-08-23T00:08:34.756Z,30.75
2018-08-23T00:11:02.807Z,34.98
2018-08-23T00:13:35.065Z,31.35
2018-08-23T00:16:03.125Z,31.55
2018-08-23T00:18:31.190Z,31.05
2018-08-23T00:20:59.268Z,30.52
2018-08-23T00:23:27.398Z,30.27
2018-08-23T00:25:55.463Z,34.70
2018-08-23T00:28:23.506Z,32.73
2018-08-23T00:30:51.567Z,35.63
2018-08-23T00:33:19.660Z,32.03
2018-08-23T00:35:47.724Z,35.13
2018-08-23T00:38:15.965Z,36.58
2018-08-23T00:40:45.082Z,33.88
2018-08-23T00:43:14.010Z,33.80
2018-08-23T00:45:42.075Z,35.25
2018-08-23T00:48:10.155Z,33.78
2018-08-23T00:50:57.096Z,38.10
2018-08-23T00:53:25.423Z,29.60
2018-08-23T00:56:08.927Z,33.78
2018-08-23T00:58:36.999Z,33.83
2018-08-23T01:01:05.484Z,34.70
2018-08-23T01:03:35.375Z,34.95
2018-08-23T01:06:03.817Z,34.33
2018-08-23T01:08:34.780Z,28.62
2018-08-23T01:11:04.092Z,28.62
2018-08-23T01:13:32.184Z,25.55
2018-08-23T01:16:00.238Z,27.27
2018-08-23T01:18:28.319Z,28.02
2018-08-23T01:20:56.393Z,25.97
2018-08-23T01:23:24.479Z,29.50
2018-08-23T01:25:52.786Z,31.33
2018-08-23T01:28:20.878Z,29.00
2018-08-23T01:30:49.585Z,32.28
2018-08-23T01:33:18.805Z,41.45
2018-08-23T01:35:48.007Z,41.92
2018-08-23T01:38:16.606Z,39.95
2018-08-23T01:40:44.883Z,40.10
2018-08-23T01:43:12.992Z,32.60
2018-08-23T01:45:41.072Z,29.90
2018-08-23T01:48:09.967Z,35.08
2018-08-23T01:50:38.028Z,32.40
2018-08-23T01:53:06.139Z,37.38
2018-08-23T01:55:34.223Z,38.73
2018-08-23T01:58:02.359Z,31.87
2018-08-23T02:00:41.252Z,33.20
2018-08-23T02:03:09.327Z,32.42
2018-08-23T02:05:38.743Z,33.60
2018-08-23T02:08:07.467Z,34.83
2018-08-23T02:10:35.542Z,35.95
2018-08-23T02:13:03.632Z,40.17
2018-08-23T02:15:36.019Z,40.95
2018-08-23T02:18:04.948Z,42.20
2018-08-23T02:20:33.027Z,41.68
2018-08-23T02:23:04.483Z,43.25
2018-08-23T02:25:32.623Z,41.63
2018-08-23T02:28:01.971Z,41.53
2018-08-23T02:30:44.083Z,40.45
2018-08-23T02:33:12.974Z,40.33
2018-08-23T02:35:45.486Z,40.90
2018-08-23T02:38:13.545Z,37.23
2018-08-23T02:40:41.603Z,37.93
2018-08-23T02:43:09.712Z,37.65
2018-08-23T02:45:43.100Z,31.27
2018-08-23T02:48:11.145Z,28.35
2018-08-23T02:50:39.217Z,30.12
2018-08-23T02:53:24.067Z,31.75
2018-08-23T02:55:53.385Z,33.33
2018-08-23T02:58:22.703Z,34.15
2018-08-23T03:00:50.760Z,32.95
2018-08-23T03:03:18.835Z,35.60
2018-08-23T03:05:46.896Z,34.75
2018-08-23T03:08:15.024Z,34.33
2018-08-23T03:10:43.176Z,30.43
2018-08-23T03:13:11.385Z,29.65
2018-08-23T03:15:39.441Z,29.55
2018-08-23T03:18:07.501Z,29.70
2018-08-23T03:20:35.611Z,31.35
2018-08-23T03:23:03.696Z,29.23
2018-08-23T03:25:31.766Z,29.00
2018-08-23T03:27:59.816Z,29.02
2018-08-23T03:30:27.894Z,27.82
2018-08-23T03:32:55.984Z,27.70
2018-08-23T03:35:24.067Z,28.02
2018-08-23T03:37:52.140Z,30.10
2018-08-23T03:40:20.213Z,30.30
2018-08-23T03:42:48.276Z,33.88
2018-08-23T03:45:21.692Z,34.43
2018-08-23T03:47:51.255Z,33.98
2018-08-23T03:50:19.314Z,36.80
2018-08-23T03:52:49.593Z,35.45
2018-08-23T03:55:18.085Z,32.13
2018-08-23T03:57:52.398Z,36.83
2018-08-23T04:01:27.102Z,33.50
2018-08-23T04:03:55.229Z,34.65
2018-08-23T04:06:30.835Z,34.03
2018-08-23T04:08:58.931Z,35.55
2018-08-23T04:11:27.032Z,31.80
2018-08-23T04:13:55.203Z,32.20
2018-08-23T04:16:28.140Z,30.90
2018-08-23T04:18:56.767Z,36.15
2018-08-23T04:21:25.043Z,31.50
2018-08-23T04:23:53.167Z,33.78
2018-08-23T04:26:21.527Z,35.15
2018-08-23T04:28:49.607Z,40.55
2018-08-23T04:31:17.702Z,39.75
2018-08-23T04:33:45.746Z,35.05
2018-08-23T04:36:32.907Z,34.08
2018-08-23T04:39:05.021Z,36.75
2018-08-23T04:41:33.661Z,33.83
2018-08-23T04:44:11.195Z,34.48
2018-08-23T04:46:39.260Z,38.65
2018-08-23T04:49:07.872Z,42.43
2018-08-23T04:51:37.104Z,47.80
2018-08-23T04:54:05.299Z,57.27
2018-08-23T04:56:33.420Z,57.48
2018-08-23T04:59:01.616Z,56.25
2018-08-23T05:01:29.722Z,56.65
2018-08-23T05:03:57.824Z,58.50
2018-08-23T05:06:25.858Z,55.55
2018-08-23T05:08:53.926Z,62.23
2018-08-23T05:11:22.058Z,56.92
2018-08-23T05:13:50.108Z,57.55
2018-08-23T05:16:18.538Z,56.60
2018-08-23T05:18:46.607Z,55.60
2018-08-23T05:21:14.690Z,54.98
2018-08-23T05:23:42.783Z,47.30
2018-08-23T05:26:14.981Z,43.90
2018-08-23T05:28:56.926Z,41.33
2018-08-23T05:31:25.877Z,43.40
2018-08-23T05:33:53.912Z,45.92
2018-08-23T05:36:21.967Z,46.70
2018-08-23T05:38:50.011Z,46.28
2018-08-23T05:41:19.067Z,42.85
2018-08-23T05:43:52.623Z,42.58
2018-08-23T05:46:20.700Z,46.58
2018-08-23T05:48:48.799Z,47.13
2018-08-23T05:51:16.884Z,44.83
2018-08-23T05:53:46.777Z,42.45
2018-08-23T05:56:14.807Z,44.10
2018-08-23T05:58:42.871Z,43.05
2018-08-23T06:01:10.975Z,40.20
2018-08-23T06:03:39.203Z,36.53
2018-08-23T06:06:07.503Z,35.63
2018-08-23T06:08:35.555Z,38.20
2018-08-23T06:11:07.839Z,37.93
2018-08-23T06:13:35.943Z,34.05
2018-08-23T06:16:04.055Z,44.13
2018-08-23T06:18:32.171Z,49.45
2018-08-23T06:21:00.378Z,53.52
2018-08-23T06:23:43.114Z,49.90
2018-08-23T06:26:11.255Z,52.50
2018-08-23T06:28:39.300Z,45.95
2018-08-23T06:31:07.393Z,48.00
2018-08-23T06:33:40.897Z,47.93
2018-08-23T06:36:10.091Z,50.35
2018-08-23T06:38:39.071Z,49.60
2018-08-23T06:41:08.283Z,49.70
2018-08-23T06:43:36.332Z,52.08
2018-08-23T06:46:04.894Z,48.50
2018-08-23T06:48:33.137Z,49.27
2018-08-23T06:51:02.058Z,44.08
2018-08-23T06:53:39.217Z,44.93
2018-08-23T06:56:07.284Z,47.23
2018-08-23T06:58:35.691Z,48.42
2018-08-23T07:01:04.695Z,48.02
2018-08-23T07:03:33.801Z,49.08
2018-08-23T07:06:02.558Z,47.95
2018-08-23T07:08:30.596Z,50.58
2018-08-23T07:11:08.405Z,57.00
2018-08-23T07:13:36.623Z,52.88
2018-08-23T07:16:04.715Z,51.08
2018-08-23T07:18:33.066Z,47.55
2018-08-23T07:21:01.164Z,50.63
2018-08-23T07:23:30.731Z,52.80
2018-08-23T07:25:58.811Z,54.53
2018-08-23T07:28:26.881Z,54.35
2018-08-23T07:30:54.905Z,49.35
2018-08-23T07:33:22.988Z,57.13
2018-08-23T07:36:02.431Z,58.63
2018-08-23T07:38:30.481Z,62.55
2018-08-23T07:40:58.568Z,56.68
2018-08-23T07:43:26.653Z,61.68
2018-08-23T07:45:54.689Z,61.68
2018-08-23T07:48:22.970Z,60.03
2018-08-23T07:50:51.018Z,56.13
2018-08-23T07:53:19.748Z,66.33
2018-08-23T07:55:47.800Z,68.02
2018-08-23T07:58:15.888Z,55.75
2018-08-23T08:00:44.395Z,59.03
2018-08-23T08:03:13.658Z,64.15
2018-08-23T08:05:42.995Z,59.53
2018-08-23T08:08:11.982Z,57.13
2018-08-23T08:10:41.538Z,53.85
2018-08-23T08:13:09.581Z,47.98
2018-08-23T08:15:37.656Z,52.25
2018-08-23T08:18:07.118Z,50.98
2018-08-23T08:20:35.216Z,50.17
2018-08-23T08:23:03.295Z,50.92
2018-08-23T08:25:32.748Z,47.40
2018-08-23T08:28:00.834Z,46.02
2018-08-23T08:30:40.524Z,46.08
2018-08-23T08:33:10.213Z,44.18
2018-08-23T08:35:42.011Z,45.03
2018-08-23T08:38:10.521Z,44.33
2018-08-23T08:40:38.576Z,45.35
2018-08-23T08:43:06.647Z,46.83
2018-08-23T08:45:34.706Z,46.30
2018-08-23T08:48:13.430Z,47.33
2018-08-23T08:51:44.014Z,51.80
2018-08-23T08:54:12.093Z,44.00
2018-08-23T08:56:41.704Z,51.75
2018-08-23T08:59:09.796Z,43.98
2018-08-23T09:01:37.903Z,50.45
2018-08-23T09:04:09.036Z,47.73
2018-08-23T09:06:45.673Z,46.90
2018-08-23T09:09:23.668Z,45.33
2018-08-23T09:11:51.741Z,43.63
2018-08-23T09:14:20.794Z,47.70
2018-08-23T09:16:48.935Z,51.40
2018-08-23T09:19:17.124Z,49.50
2018-08-23T09:21:50.539Z,47.88
2018-08-23T09:24:26.641Z,47.70
2018-08-23T09:26:58.656Z,51.42
2018-08-23T09:29:34.931Z,49.55
2018-08-23T09:32:28.667Z,40.67
2018-08-23T09:34:58.059Z,44.93
2018-08-23T09:37:26.735Z,45.40
2018-08-23T09:39:54.851Z,44.08
2018-08-23T09:42:22.940Z,44.33
2018-08-23T09:45:23.796Z,43.68
2018-08-23T09:47:51.888Z,45.73
2018-08-23T09:50:19.964Z,45.78
2018-08-23T09:52:49.439Z,48.25
2018-08-23T09:55:18.667Z,51.88
2018-08-23T09:57:47.363Z,50.03
2018-08-23T10:01:18.158Z,44.40
2018-08-23T10:03:51.739Z,45.70
2018-08-23T10:06:21.751Z,46.50
2018-08-23T10:08:56.111Z,44.30
2018-08-23T10:11:29.575Z,45.20
2018-08-23T10:14:02.948Z,43.08
2018-08-23T10:16:36.343Z,46.05
2018-08-23T10:19:09.475Z,44.67
2018-08-23T10:21:42.991Z,39.83
2018-08-23T10:24:16.978Z,40.52
2018-08-23T10:26:45.661Z,46.28
2018-08-23T10:29:13.827Z,43.50
2018-08-23T10:31:41.905Z,38.78
2018-08-23T10:34:10.006Z,39.05
2018-08-23T10:36:38.217Z,43.45
2018-08-23T10:39:09.052Z,44.65
2018-08-23T10:41:37.182Z,39.65
2018-08-23T10:44:05.315Z,40.55
2018-08-23T10:47:07.109Z,38.88
2018-08-23T10:49:35.339Z,40.00
2018-08-23T10:52:03.415Z,40.10
2018-08-23T10:54:31.523Z,39.10
2018-08-23T10:56:59.700Z,33.30
2018-08-23T10:59:27.840Z,33.58
2018-08-23T11:01:55.927Z,30.65
2018-08-23T11:04:24.004Z,33.05
2018-08-23T11:06:58.139Z,29.30
2018-08-23T11:09:31.577Z,30.70
2018-08-23T11:11:59.961Z,29.98
2018-08-23T11:14:33.399Z,25.97
2018-08-23T11:17:06.930Z,26.55
2018-08-23T11:19:40.308Z,23.57
2018-08-23T11:22:08.430Z,22.35
2018-08-23T11:24:36.561Z,20.62
2018-08-23T11:27:04.668Z,22.60
2018-08-23T11:29:32.818Z,21.60
2018-08-23T11:32:00.992Z,19.55
2018-08-23T11:34:29.110Z,19.37
2018-08-23T11:36:57.237Z,19.57
2018-08-23T11:39:25.312Z,19.07
2018-08-23T11:41:53.440Z,20.85
2018-08-23T11:44:21.528Z,20.37
2018-08-23T11:46:49.616Z,18.20
2018-08-23T11:49:17.765Z,17.40
2018-08-23T11:51:45.960Z,18.57
2018-08-23T11:54:14.039Z,17.67
2018-08-23T11:56:42.204Z,17.42
2018-08-23T11:59:10.343Z,18.35
2018-08-23T12:01:38.403Z,19.67
2018-08-23T12:04:06.510Z,19.80
2018-08-23T12:06:34.704Z,17.70
2018-08-23T12:09:02.753Z,17.45
2018-08-23T12:11:30.895Z,16.17
2018-08-23T12:14:00.608Z,19.65
2018-08-23T12:16:28.745Z,15.90
2018-08-23T12:18:56.865Z,18.82
2018-08-23T12:21:24.932Z,16.20
2018-08-23T12:23:53.064Z,17.00
2018-08-23T12:26:21.185Z,16.15
2018-08-23T12:28:56.013Z,14.68
2018-08-23T12:31:24.273Z,16.97
2018-08-23T12:33:52.351Z,14.45
2018-08-23T12:36:25.681Z,13.72
2018-08-23T12:38:59.121Z,14.98
2018-08-23T12:41:32.621Z,14.65
2018-08-23T12:44:00.776Z,16.80
2018-08-23T12:46:29.001Z,15.00
2018-08-23T12:48:57.094Z,15.25
2018-08-23T12:51:25.180Z,13.78
2018-08-23T12:53:53.573Z,15.80
2018-08-23T12:56:21.816Z,13.53
2018-08-23T12:58:49.887Z,13.50
2018-08-23T13:01:18.005Z,12.68
2018-08-23T13:03:46.127Z,13.28
2018-08-23T13:06:14.128Z,11.25
2018-08-23T13:08:42.251Z,11.85
2018-08-23T13:11:10.359Z,11.20
2018-08-23T13:13:38.420Z,10.68
2018-08-23T13:16:06.498Z,11.50
2018-08-23T13:18:34.637Z,11.28
2018-08-23T13:21:02.745Z,11.08
2018-08-23T13:23:30.991Z,10.95
2018-08-23T13:25:59.512Z,11.70
2018-08-23T13:28:28.356Z,11.28
2018-08-23T13:30:56.554Z,9.68
2018-08-23T13:33:25.660Z,10.50
2018-08-23T13:35:53.760Z,11.05
2018-08-23T13:38:22.016Z,9.68
2018-08-23T13:40:54.018Z,10.23
2018-08-23T13:43:22.589Z,10.40
2018-08-23T13:45:50.636Z,11.65
2018-08-23T13:48:18.771Z,10.23
2018-08-23T13:50:46.808Z,9.28
2018-08-23T13:53:14.921Z,8.93
2018-08-23T13:55:43.023Z,11.55
2018-08-23T13:58:11.344Z,10.78
2018-08-23T14:00:40.072Z,9.83
2018-08-23T14:03:10.119Z,10.88
2018-08-23T14:05:39.409Z,10.53
2018-08-23T14:08:07.800Z,10.05
2018-08-23T14:10:36.007Z,13.30
2018-08-23T14:13:04.803Z,10.65
2018-08-23T14:15:38.418Z,10.28
2018-08-23T14:18:06.623Z,13.13
2018-08-23T14:20:34.916Z,10.98
2018-08-23T14:23:03.109Z,11.53
2018-08-23T14:25:31.576Z,10.45
2018-08-23T14:27:59.851Z,11.43
2018-08-23T14:30:28.150Z,12.68
2018-08-23T14:32:56.587Z,10.05
2018-08-23T14:35:24.667Z,10.13
2018-08-23T14:37:52.760Z,10.75
2018-08-23T14:40:20.963Z,12.05
2018-08-23T14:42:49.039Z,10.70
2018-08-23T14:45:22.598Z,11.53
2018-08-23T14:47:56.178Z,11.48
2018-08-23T14:50:24.337Z,10.60
2018-08-23T14:52:53.427Z,9.98
2018-08-23T14:55:26.959Z,9.93
2018-08-23T14:57:55.431Z,9.83
2018-08-23T15:00:23.482Z,8.93
2018-08-23T15:02:51.564Z,7.65
2018-08-23T15:05:19.646Z,6.95
2018-08-23T15:07:47.835Z,7.20
2018-08-23T15:10:15.895Z,7.12
2018-08-23T15:12:44.000Z,8.60
2018-08-23T15:15:12.107Z,7.92
2018-08-23T15:17:40.209Z,7.28
2018-08-23T15:20:08.384Z,7.85
2018-08-23T15:22:36.600Z,7.20
2018-08-23T15:25:04.947Z,7.33
2018-08-23T15:27:33.446Z,7.50
2018-08-23T15:30:02.653Z,7.05
2018-08-23T15:32:30.789Z,7.10
2018-08-23T15:34:58.924Z,7.60
2018-08-23T15:37:27.683Z,7.40
2018-08-23T15:39:55.764Z,8.70
2018-08-23T15:42:23.964Z,7.90
2018-08-23T15:44:52.072Z,7.72
2018-08-23T15:47:20.169Z,7.97
2018-08-23T15:49:48.252Z,6.70
2018-08-23T15:52:16.361Z,8.20
2018-08-23T15:54:44.468Z,7.03
2018-08-23T15:57:12.664Z,6.85
2018-08-23T15:59:40.778Z,6.72
2018-08-23T16:02:08.872Z,6.50
2018-08-23T16:04:36.938Z,7.53
2018-08-23T16:07:05.101Z,7.03
2018-08-23T16:09:33.212Z,7.95
2018-08-23T16:12:01.326Z,6.15
2018-08-23T16:14:29.537Z,6.45
2018-08-23T16:17:03.110Z,6.78
2018-08-23T16:19:36.475Z,6.17
2018-08-23T16:22:04.604Z,6.78
2018-08-23T16:24:32.682Z,5.90
2018-08-23T16:27:03.712Z,6.92
2018-08-23T16:29:31.946Z,5.90
2018-08-23T16:32:01.068Z,6.78
2018-08-23T16:34:29.418Z,5.65
2018-08-23T16:36:57.765Z,6.35
2018-08-23T16:39:25.888Z,5.70
2018-08-23T16:41:54.001Z,6.20
2018-08-23T16:44:22.093Z,6.00
2018-08-23T16:46:50.211Z,6.12
2018-08-23T16:49:18.283Z,5.90
2018-08-23T16:51:46.399Z,6.12
2018-08-23T16:54:14.507Z,7.33
2018-08-23T16:56:42.665Z,7.40
2018-08-23T16:59:10.781Z,8.75
2018-08-23T17:01:38.969Z,9.60
2018-08-23T17:04:07.154Z,8.45
2018-08-23T17:06:35.196Z,10.03
2018-08-23T17:09:03.318Z,6.87
2018-08-23T17:11:31.448Z,7.10
2018-08-23T17:13:59.555Z,6.95
2018-08-23T17:16:32.995Z,7.25
2018-08-23T17:19:01.361Z,7.40
2018-08-23T17:21:29.491Z,7.75
2018-08-23T17:23:57.684Z,9.25
2018-08-23T17:26:25.768Z,6.37
2018-08-23T17:28:53.869Z,6.58
2018-08-23T17:31:21.995Z,6.85
2018-08-23T17:33:50.079Z,6.80
2018-08-23T17:36:18.157Z,7.25
2018-08-23T17:38:46.328Z,10.05
2018-08-23T17:41:14.485Z,7.92
2018-08-23T17:43:42.655Z,8.80
2018-08-23T17:46:10.789Z,7.62
2018-08-23T17:48:38.869Z,7.87
2018-08-23T17:51:06.951Z,7.95
2018-08-23T17:53:35.108Z,10.72
2018-08-23T17:56:03.204Z,10.03
2018-08-23T17:58:31.308Z,10.88
2018-08-23T18:00:59.390Z,12.55
2018-08-23T18:03:27.549Z,10.53
2018-08-23T18:05:55.681Z,10.08
2018-08-23T18:08:23.899Z,8.93
2018-08-23T18:10:51.962Z,12.10
2018-08-23T18:13:20.032Z,9.33
2018-08-23T18:15:53.504Z,8.48
2018-08-23T18:18:21.705Z,9.25
2018-08-23T18:20:49.835Z,9.93
2018-08-23T18:23:17.944Z,9.23
2018-08-23T18:25:46.103Z,9.13
2018-08-23T18:28:14.286Z,9.40
2018-08-23T18:30:42.381Z,12.07
2018-08-23T18:33:11.599Z,9.85
2018-08-23T18:35:39.737Z,10.85
2018-08-23T18:38:07.813Z,10.00
2018-08-23T18:40:35.973Z,8.98
2018-08-23T18:43:04.072Z,8.38
2018-08-23T18:45:32.173Z,9.20
2018-08-23T18:48:00.299Z,8.98
2018-08-23T18:50:28.464Z,8.48
2018-08-23T18:52:56.568Z,8.15
2018-08-23T18:55:24.660Z,10.50
2018-08-23T18:57:52.752Z,7.55
2018-08-23T19:00:20.874Z,8.18
2018-08-23T19:02:48.965Z,10.72
2018-08-23T19:05:17.015Z,9.03
2018-08-23T19:07:45.077Z,9.08
2018-08-23T19:10:13.432Z,8.95
2018-08-23T19:12:41.495Z,9.00
2018-08-23T19:15:09.660Z,9.15
2018-08-23T19:17:39.733Z,8.23
2018-08-23T19:20:08.801Z,11.28
2018-08-23T19:22:37.194Z,9.35
2018-08-23T19:25:05.949Z,10.55
2018-08-23T19:27:34.092Z,11.65
2018-08-23T19:30:02.304Z,10.15
2018-08-23T19:32:30.813Z,10.23
2018-08-23T19:34:59.088Z,13.60
2018-08-23T19:37:27.195Z,11.05
2018-08-23T19:39:55.291Z,10.60
2018-08-23T19:42:23.345Z,11.55
2018-08-23T19:44:56.542Z,14.70
2018-08-23T19:47:29.920Z,10.50
2018-08-23T19:50:00.036Z,14.50
2018-08-23T19:52:29.229Z,11.10
2018-08-23T19:54:58.145Z,13.70
2018-08-23T19:57:26.400Z,13.03
2018-08-23T19:59:54.483Z,13.18
2018-08-23T20:02:22.612Z,12.03
2018-08-23T20:04:50.733Z,12.88
2018-08-23T20:07:18.805Z,15.03
2018-08-23T20:09:46.890Z,12.33
2018-08-23T20:12:14.987Z,12.82
2018-08-23T20:14:43.044Z,14.38
2018-08-23T20:17:11.123Z,11.90
2018-08-23T20:19:39.216Z,12.37
2018-08-23T20:22:07.923Z,11.65
2018-08-23T20:24:36.503Z,13.43
2018-08-23T20:27:04.661Z,11.90
2018-08-23T20:29:32.825Z,12.18
2018-08-23T20:32:00.927Z,11.28
2018-08-23T20:34:29.042Z,11.65
2018-08-23T20:36:57.137Z,14.43
2018-08-23T20:39:25.395Z,12.90
2018-08-23T20:41:53.283Z,12.33
2018-08-23T20:44:21.388Z,12.25
2018-08-23T20:46:49.491Z,12.40
2018-08-23T20:49:17.594Z,13.72
2018-08-23T20:51:45.700Z,12.30
2018-08-23T20:54:13.809Z,13.15
2018-08-23T20:56:41.892Z,11.80
2018-08-23T20:59:10.045Z,12.47
2018-08-23T21:01:38.141Z,13.03
2018-08-23T21:04:07.529Z,14.30
2018-08-23T21:06:35.609Z,13.45
2018-08-23T21:09:05.929Z,13.40
2018-08-23T21:11:34.023Z,12.98
2018-08-23T21:14:02.100Z,14.63
2018-08-23T21:16:30.210Z,12.88
2018-08-23T21:18:58.329Z,12.98
2018-08-23T21:21:26.403Z,13.43
2018-08-23T21:23:54.484Z,12.88
2018-08-23T21:26:22.605Z,11.83
2018-08-23T21:28:50.715Z,12.43
2018-08-23T21:31:18.842Z,12.33
2018-08-23T21:33:46.920Z,12.43
2018-08-23T21:36:15.047Z,11.28
2018-08-23T21:38:43.287Z,11.28
2018-08-23T21:41:12.960Z,10.95
2018-08-23T21:43:41.040Z,11.85
2018-08-23T21:46:09.169Z,13.00
2018-08-23T21:48:37.297Z,12.82
2018-08-23T21:51:05.499Z,12.65
2018-08-23T21:53:33.717Z,12.88
2018-08-23T21:56:01.869Z,13.95
2018-08-23T21:58:30.039Z,13.13
2018-08-23T22:01:03.346Z,13.48
2018-08-23T22:03:31.445Z,14.28
2018-08-23T22:05:59.587Z,15.72
2018-08-23T22:08:27.652Z,14.93
2018-08-23T22:10:55.796Z,16.52
2018-08-23T22:13:23.876Z,13.72
2018-08-23T22:15:51.943Z,14.98
2018-08-23T22:18:20.223Z,15.53
2018-08-23T22:20:48.298Z,15.13
2018-08-23T22:23:16.367Z,14.50
2018-08-23T22:25:44.432Z,15.93
2018-08-23T22:28:12.499Z,15.43
2018-08-23T22:30:41.736Z,15.40
2018-08-23T22:33:11.246Z,17.27
2018-08-23T22:35:39.810Z,15.15
2018-08-23T22:38:08.402Z,15.50
2018-08-23T22:40:37.035Z,20.27
2018-08-23T22:43:05.369Z,15.88
2018-08-23T22:45:33.539Z,19.00
2018-08-23T22:48:01.704Z,15.58
2018-08-23T22:50:36.206Z,17.17
2018-08-23T22:53:04.376Z,14.70
2018-08-23T22:55:32.494Z,15.75
2018-08-23T22:58:00.616Z,15.83
2018-08-23T23:00:33.993Z,16.52
2018-08-23T23:03:02.064Z,16.77
2018-08-23T23:05:30.152Z,17.35
2018-08-23T23:08:02.424Z,16.85
2018-08-23T23:10:30.493Z,17.57
2018-08-23T23:12:58.603Z,16.23
2018-08-23T23:15:26.944Z,18.75
2018-08-23T23:17:55.274Z,16.82
2018-08-23T23:20:23.351Z,16.67
2018-08-23T23:22:51.408Z,19.35
2018-08-23T23:25:19.463Z,17.05
2018-08-23T23:27:47.531Z,15.50
2018-08-23T23:30:15.587Z,14.75
2018-08-23T23:32:43.723Z,15.35
2018-08-23T23:35:11.860Z,15.15
2018-08-23T23:37:39.948Z,15.00
2018-08-23T23:40:08.059Z,15.68
2018-08-23T23:42:36.775Z,15.32
2018-08-23T23:45:05.576Z,15.50
2018-08-23T23:47:33.703Z,15.95
2018-08-23T23:50:01.846Z,17.60
2018-08-23T23:52:29.993Z,14.07
2018-08-23T23:54:57.168Z,15.68
2018-08-23T23:57:25.244Z,17.07
2018-08-23T23:59:53.288Z,16.87
